sensor_id;sensor_type;location;lat;lon;timestamp;temperature;humidity
22071;DHT22;11200;51.488;6.668;2022-07-24T00:01:36;18.40;99.90
22071;DHT22;11200;51.488;6.668;2022-07-24T00:04:03;18.60;99.90
22071;DHT22;11200;51.488;6.668;2022-07-24T00:06:29;18.40;99.90
22071;DHT22;11200;51.488;6.668;2022-07-24T00:08:55;18.40;99.90
22071;DHT22;11200;51.488;6.668;2022-07-24T00:11:20;18.40;99.90
22071;DHT22;11200;51.488;6.668;2022-07-24T00:13:46;18.40;99.90
22071;DHT22;11200;51.488;6.668;2022-07-24T00:16:11;18.30;99.90
22071;DHT22;11200;51.488;6.668;2022-07-24T00:18:37;18.30;99.90
22071;DHT22;11200;51.488;6.668;2022-07-24T00:21:03;18.30;99.90
22071;DHT22;11200;51.488;6.668;2022-07-24T00:23:28;18.30;99.90
22071;DHT22;11200;51.488;6.668;2022-07-24T00:25:54;18.20;99.90
22071;DHT22;11200;51.488;6.668;2022-07-24T00:28:20;18.20;99.90
22071;DHT22;11200;51.488;6.668;2022-07-24T00:30:46;18.20;99.90
22071;DHT22;11200;51.488;6.668;2022-07-24T00:33:11;18.20;99.90
22071;DHT22;11200;51.488;6.668;2022-07-24T00:35:37;18.20;99.90
22071;DHT22;11200;51.488;6.668;2022-07-24T00:38:03;18.20;99.90
22071;DHT22;11200;51.488;6.668;2022-07-24T00:40:28;18.10;99.90
22071;DHT22;11200;51.488;6.668;2022-07-24T00:42:56;18.10;99.90
22071;DHT22;11200;51.488;6.668;2022-07-24T00:45:22;18.10;99.90
22071;DHT22;11200;51.488;6.668;2022-07-24T00:47:47;18.10;99.90
22071;DHT22;11200;51.488;6.668;2022-07-24T00:50:13;18.10;99.90
22071;DHT22;11200;51.488;6.668;2022-07-24T00:52:39;18.10;99.90
22071;DHT22;11200;51.488;6.668;2022-07-24T00:55:05;17.90;99.90
22071;DHT22;11200;51.488;6.668;2022-07-24T00:57:31;18.00;99.90
22071;DHT22;11200;51.488;6.668;2022-07-24T00:59:57;18.10;99.90
22071;DHT22;11200;51.488;6.668;2022-07-24T01:02:23;18.00;99.90
22071;DHT22;11200;51.488;6.668;2022-07-24T01:04:49;18.00;99.90
22071;DHT22;11200;51.488;6.668;2022-07-24T01:07:16;18.00;99.90
22071;DHT22;11200;51.488;6.668;2022-07-24T01:09:41;18.00;99.90
22071;DHT22;11200;51.488;6.668;2022-07-24T01:12:08;17.90;99.90
22071;DHT22;11200;51.488;6.668;2022-07-24T01:14:34;17.90;99.90
22071;DHT22;11200;51.488;6.668;2022-07-24T01:16:59;17.90;99.90
22071;DHT22;11200;51.488;6.668;2022-07-24T01:19:25;17.90;99.90
22071;DHT22;11200;51.488;6.668;2022-07-24T01:21:52;17.80;99.90
22071;DHT22;11200;51.488;6.668;2022-07-24T01:24:19;17.90;99.90
22071;DHT22;11200;51.488;6.668;2022-07-24T01:26:46;17.80;99.90
22071;DHT22;11200;51.488;6.668;2022-07-24T01:29:12;17.80;99.90
22071;DHT22;11200;51.488;6.668;2022-07-24T01:31:38;17.80;99.90
22071;DHT22;11200;51.488;6.668;2022-07-24T01:34:04;17.80;99.90
22071;DHT22;11200;51.488;6.668;2022-07-24T01:36:30;17.70;99.90
22071;DHT22;11200;51.488;6.668;2022-07-24T01:38:55;17.70;99.90
22071;DHT22;11200;51.488;6.668;2022-07-24T01:41:21;17.70;99.90
22071;DHT22;11200;51.488;6.668;2022-07-24T01:43:47;17.70;99.90
22071;DHT22;11200;51.488;6.668;2022-07-24T01:46:12;17.60;99.90
22071;DHT22;11200;51.488;6.668;2022-07-24T01:48:40;17.70;99.90
22071;DHT22;11200;51.488;6.668;2022-07-24T01:51:06;17.70;99.90
22071;DHT22;11200;51.488;6.668;2022-07-24T01:53:32;17.60;99.90
22071;DHT22;11200;51.488;6.668;2022-07-24T01:55:57;17.60;99.90
22071;DHT22;11200;51.488;6.668;2022-07-24T01:58:23;17.60;99.90
22071;DHT22;11200;51.488;6.668;2022-07-24T02:00:49;17.50;99.90
22071;DHT22;11200;51.488;6.668;2022-07-24T02:03:15;17.50;99.90
22071;DHT22;11200;51.488;6.668;2022-07-24T02:05:40;17.50;99.90
22071;DHT22;11200;51.488;6.668;2022-07-24T02:08:06;17.50;99.90
22071;DHT22;11200;51.488;6.668;2022-07-24T02:10:32;17.50;99.90
22071;DHT22;11200;51.488;6.668;2022-07-24T02:12:58;17.50;99.90
22071;DHT22;11200;51.488;6.668;2022-07-24T02:15:24;17.50;99.90
22071;DHT22;11200;51.488;6.668;2022-07-24T02:17:52;17.40;99.90
22071;DHT22;11200;51.488;6.668;2022-07-24T02:20:18;17.40;99.90
22071;DHT22;11200;51.488;6.668;2022-07-24T02:22:44;17.40;99.90
22071;DHT22;11200;51.488;6.668;2022-07-24T02:25:10;17.40;99.90
22071;DHT22;11200;51.488;6.668;2022-07-24T02:27:36;17.40;99.90
22071;DHT22;11200;51.488;6.668;2022-07-24T02:30:08;17.40;99.90
22071;DHT22;11200;51.488;6.668;2022-07-24T02:32:34;17.40;99.90
22071;DHT22;11200;51.488;6.668;2022-07-24T02:35:00;17.30;99.90
22071;DHT22;11200;51.488;6.668;2022-07-24T02:37:25;17.30;99.90
22071;DHT22;11200;51.488;6.668;2022-07-24T02:39:51;17.30;99.90
22071;DHT22;11200;51.488;6.668;2022-07-24T02:42:16;17.30;99.90
22071;DHT22;11200;51.488;6.668;2022-07-24T02:44:42;17.30;99.90
22071;DHT22;11200;51.488;6.668;2022-07-24T02:47:07;17.30;99.90
22071;DHT22;11200;51.488;6.668;2022-07-24T02:49:33;17.30;99.90
22071;DHT22;11200;51.488;6.668;2022-07-24T02:51:59;17.20;99.90
22071;DHT22;11200;51.488;6.668;2022-07-24T02:54:24;17.20;99.90
22071;DHT22;11200;51.488;6.668;2022-07-24T02:56:50;17.20;99.90
22071;DHT22;11200;51.488;6.668;2022-07-24T02:59:15;17.20;99.90
22071;DHT22;11200;51.488;6.668;2022-07-24T03:01:41;17.20;99.90
22071;DHT22;11200;51.488;6.668;2022-07-24T03:04:06;17.20;99.90
22071;DHT22;11200;51.488;6.668;2022-07-24T03:06:32;17.20;99.90
22071;DHT22;11200;51.488;6.668;2022-07-24T03:08:58;17.20;99.90
22071;DHT22;11200;51.488;6.668;2022-07-24T03:11:24;17.10;99.90
22071;DHT22;11200;51.488;6.668;2022-07-24T03:13:49;17.10;99.90
22071;DHT22;11200;51.488;6.668;2022-07-24T03:16:15;17.10;99.90
22071;DHT22;11200;51.488;6.668;2022-07-24T03:18:42;17.10;99.90
22071;DHT22;11200;51.488;6.668;2022-07-24T03:21:12;17.10;99.90
22071;DHT22;11200;51.488;6.668;2022-07-24T03:23:38;17.00;99.90
22071;DHT22;11200;51.488;6.668;2022-07-24T03:26:03;17.00;99.90
22071;DHT22;11200;51.488;6.668;2022-07-24T03:28:29;17.10;99.90
22071;DHT22;11200;51.488;6.668;2022-07-24T03:30:55;17.00;99.90
22071;DHT22;11200;51.488;6.668;2022-07-24T03:33:21;17.00;99.90
22071;DHT22;11200;51.488;6.668;2022-07-24T03:35:46;17.00;99.90
22071;DHT22;11200;51.488;6.668;2022-07-24T03:38:12;17.00;99.90
22071;DHT22;11200;51.488;6.668;2022-07-24T03:40:37;17.00;99.90
22071;DHT22;11200;51.488;6.668;2022-07-24T03:43:03;17.00;99.90
22071;DHT22;11200;51.488;6.668;2022-07-24T03:45:28;17.10;99.90
22071;DHT22;11200;51.488;6.668;2022-07-24T03:47:54;17.00;99.90
22071;DHT22;11200;51.488;6.668;2022-07-24T03:50:19;17.00;99.90
22071;DHT22;11200;51.488;6.668;2022-07-24T03:52:45;17.00;99.90
22071;DHT22;11200;51.488;6.668;2022-07-24T03:55:10;17.00;99.90
22071;DHT22;11200;51.488;6.668;2022-07-24T03:57:36;17.00;99.90
22071;DHT22;11200;51.488;6.668;2022-07-24T04:00:04;17.00;99.90
22071;DHT22;11200;51.488;6.668;2022-07-24T04:02:29;17.00;99.90
22071;DHT22;11200;51.488;6.668;2022-07-24T04:04:55;17.00;99.90
22071;DHT22;11200;51.488;6.668;2022-07-24T04:07:20;17.00;99.90
22071;DHT22;11200;51.488;6.668;2022-07-24T04:09:46;17.00;99.90
22071;DHT22;11200;51.488;6.668;2022-07-24T04:12:11;17.00;99.90
22071;DHT22;11200;51.488;6.668;2022-07-24T04:14:37;17.00;99.90
22071;DHT22;11200;51.488;6.668;2022-07-24T04:17:03;16.90;99.90
22071;DHT22;11200;51.488;6.668;2022-07-24T04:19:28;16.90;99.90
22071;DHT22;11200;51.488;6.668;2022-07-24T04:21:54;16.90;99.90
22071;DHT22;11200;51.488;6.668;2022-07-24T04:24:20;17.00;99.90
22071;DHT22;11200;51.488;6.668;2022-07-24T04:26:46;16.90;99.90
22071;DHT22;11200;51.488;6.668;2022-07-24T04:29:11;16.90;99.90
22071;DHT22;11200;51.488;6.668;2022-07-24T04:31:37;16.90;99.90
22071;DHT22;11200;51.488;6.668;2022-07-24T04:34:03;16.90;99.90
22071;DHT22;11200;51.488;6.668;2022-07-24T04:36:28;17.40;99.90
22071;DHT22;11200;51.488;6.668;2022-07-24T04:38:54;16.90;99.90
22071;DHT22;11200;51.488;6.668;2022-07-24T04:41:19;16.90;99.90
22071;DHT22;11200;51.488;6.668;2022-07-24T04:43:45;16.90;99.90
22071;DHT22;11200;51.488;6.668;2022-07-24T04:46:11;16.90;99.90
22071;DHT22;11200;51.488;6.668;2022-07-24T04:48:36;17.00;99.90
22071;DHT22;11200;51.488;6.668;2022-07-24T04:51:02;17.00;99.90
22071;DHT22;11200;51.488;6.668;2022-07-24T04:53:28;17.00;99.90
22071;DHT22;11200;51.488;6.668;2022-07-24T04:55:56;17.00;99.90
22071;DHT22;11200;51.488;6.668;2022-07-24T04:58:22;17.00;99.90
22071;DHT22;11200;51.488;6.668;2022-07-24T05:00:47;17.00;99.90
22071;DHT22;11200;51.488;6.668;2022-07-24T05:03:13;17.00;99.90
22071;DHT22;11200;51.488;6.668;2022-07-24T05:05:39;17.00;99.90
22071;DHT22;11200;51.488;6.668;2022-07-24T05:08:04;17.00;99.90
22071;DHT22;11200;51.488;6.668;2022-07-24T05:10:30;17.10;99.90
22071;DHT22;11200;51.488;6.668;2022-07-24T05:12:55;17.10;99.90
22071;DHT22;11200;51.488;6.668;2022-07-24T05:15:21;17.10;99.90
22071;DHT22;11200;51.488;6.668;2022-07-24T05:17:47;17.10;99.90
22071;DHT22;11200;51.488;6.668;2022-07-24T05:20:13;17.20;99.90
22071;DHT22;11200;51.488;6.668;2022-07-24T05:22:39;17.20;99.90
22071;DHT22;11200;51.488;6.668;2022-07-24T05:25:05;17.20;99.90
22071;DHT22;11200;51.488;6.668;2022-07-24T05:27:31;17.20;99.90
22071;DHT22;11200;51.488;6.668;2022-07-24T05:29:56;17.30;99.90
22071;DHT22;11200;51.488;6.668;2022-07-24T05:32:22;17.30;99.90
22071;DHT22;11200;51.488;6.668;2022-07-24T05:34:48;17.30;99.90
22071;DHT22;11200;51.488;6.668;2022-07-24T05:37:13;17.40;99.90
22071;DHT22;11200;51.488;6.668;2022-07-24T05:39:39;17.40;99.90
22071;DHT22;11200;51.488;6.668;2022-07-24T05:42:04;17.40;99.90
22071;DHT22;11200;51.488;6.668;2022-07-24T05:44:30;17.50;99.90
22071;DHT22;11200;51.488;6.668;2022-07-24T05:46:56;17.50;99.90
22071;DHT22;11200;51.488;6.668;2022-07-24T05:49:21;17.50;99.90
22071;DHT22;11200;51.488;6.668;2022-07-24T05:51:47;17.50;99.90
22071;DHT22;11200;51.488;6.668;2022-07-24T05:54:13;17.50;99.90
22071;DHT22;11200;51.488;6.668;2022-07-24T05:56:38;17.60;99.90
22071;DHT22;11200;51.488;6.668;2022-07-24T05:59:04;17.60;99.90
22071;DHT22;11200;51.488;6.668;2022-07-24T06:01:29;17.70;99.90
22071;DHT22;11200;51.488;6.668;2022-07-24T06:03:55;17.70;99.90
22071;DHT22;11200;51.488;6.668;2022-07-24T06:06:21;17.70;99.90
22071;DHT22;11200;51.488;6.668;2022-07-24T06:08:46;17.80;99.90
22071;DHT22;11200;51.488;6.668;2022-07-24T06:11:12;17.80;99.90
22071;DHT22;11200;51.488;6.668;2022-07-24T06:13:38;17.80;99.90
22071;DHT22;11200;51.488;6.668;2022-07-24T06:16:04;17.90;99.90
22071;DHT22;11200;51.488;6.668;2022-07-24T06:18:29;17.90;99.90
22071;DHT22;11200;51.488;6.668;2022-07-24T06:20:55;17.90;99.90
22071;DHT22;11200;51.488;6.668;2022-07-24T06:23:21;18.00;99.90
22071;DHT22;11200;51.488;6.668;2022-07-24T06:25:46;18.00;99.90
22071;DHT22;11200;51.488;6.668;2022-07-24T06:28:12;18.10;99.90
22071;DHT22;11200;51.488;6.668;2022-07-24T06:30:37;18.10;99.90
22071;DHT22;11200;51.488;6.668;2022-07-24T06:33:03;18.10;99.90
22071;DHT22;11200;51.488;6.668;2022-07-24T06:35:29;18.20;99.90
22071;DHT22;11200;51.488;6.668;2022-07-24T06:37:58;18.20;99.90
22071;DHT22;11200;51.488;6.668;2022-07-24T06:40:24;18.40;99.90
22071;DHT22;11200;51.488;6.668;2022-07-24T06:42:50;18.30;99.90
22071;DHT22;11200;51.488;6.668;2022-07-24T06:45:16;18.40;99.90
22071;DHT22;11200;51.488;6.668;2022-07-24T06:47:42;18.50;99.90
22071;DHT22;11200;51.488;6.668;2022-07-24T06:50:08;18.50;99.90
22071;DHT22;11200;51.488;6.668;2022-07-24T06:52:34;18.50;99.90
22071;DHT22;11200;51.488;6.668;2022-07-24T06:54:59;18.60;99.90
22071;DHT22;11200;51.488;6.668;2022-07-24T06:57:25;18.70;99.90
22071;DHT22;11200;51.488;6.668;2022-07-24T06:59:52;18.70;99.90
22071;DHT22;11200;51.488;6.668;2022-07-24T07:02:18;18.70;99.90
22071;DHT22;11200;51.488;6.668;2022-07-24T07:04:44;18.80;99.90
22071;DHT22;11200;51.488;6.668;2022-07-24T07:07:09;18.80;99.90
22071;DHT22;11200;51.488;6.668;2022-07-24T07:09:35;18.90;99.90
22071;DHT22;11200;51.488;6.668;2022-07-24T07:12:02;19.00;99.90
22071;DHT22;11200;51.488;6.668;2022-07-24T07:14:28;19.00;99.90
22071;DHT22;11200;51.488;6.668;2022-07-24T07:16:53;19.00;99.90
22071;DHT22;11200;51.488;6.668;2022-07-24T07:19:19;19.10;99.90
22071;DHT22;11200;51.488;6.668;2022-07-24T07:21:45;19.10;99.90
22071;DHT22;11200;51.488;6.668;2022-07-24T07:24:10;19.20;99.90
22071;DHT22;11200;51.488;6.668;2022-07-24T07:26:36;19.30;99.90
22071;DHT22;11200;51.488;6.668;2022-07-24T07:29:02;19.30;99.90
22071;DHT22;11200;51.488;6.668;2022-07-24T07:31:27;19.40;99.90
22071;DHT22;11200;51.488;6.668;2022-07-24T07:33:53;19.50;99.90
22071;DHT22;11200;51.488;6.668;2022-07-24T07:36:19;19.60;99.90
22071;DHT22;11200;51.488;6.668;2022-07-24T07:38:45;19.70;99.90
22071;DHT22;11200;51.488;6.668;2022-07-24T07:41:11;19.80;99.90
22071;DHT22;11200;51.488;6.668;2022-07-24T07:43:38;19.90;99.90
22071;DHT22;11200;51.488;6.668;2022-07-24T07:46:04;20.00;99.90
22071;DHT22;11200;51.488;6.668;2022-07-24T07:48:30;20.10;99.90
22071;DHT22;11200;51.488;6.668;2022-07-24T07:50:56;20.20;99.90
22071;DHT22;11200;51.488;6.668;2022-07-24T07:53:22;20.40;99.90
22071;DHT22;11200;51.488;6.668;2022-07-24T07:55:47;20.50;99.90
22071;DHT22;11200;51.488;6.668;2022-07-24T07:58:17;20.70;99.90
22071;DHT22;11200;51.488;6.668;2022-07-24T08:00:43;20.80;99.90
22071;DHT22;11200;51.488;6.668;2022-07-24T08:03:08;21.00;99.90
22071;DHT22;11200;51.488;6.668;2022-07-24T08:05:34;21.10;99.90
22071;DHT22;11200;51.488;6.668;2022-07-24T08:08:00;21.20;99.90
22071;DHT22;11200;51.488;6.668;2022-07-24T08:10:26;21.40;99.90
22071;DHT22;11200;51.488;6.668;2022-07-24T08:12:52;21.50;99.90
22071;DHT22;11200;51.488;6.668;2022-07-24T08:15:17;21.70;99.90
22071;DHT22;11200;51.488;6.668;2022-07-24T08:17:43;21.80;99.90
22071;DHT22;11200;51.488;6.668;2022-07-24T08:20:09;22.00;99.90
22071;DHT22;11200;51.488;6.668;2022-07-24T08:22:35;22.20;99.90
22071;DHT22;11200;51.488;6.668;2022-07-24T08:25:01;22.30;99.90
22071;DHT22;11200;51.488;6.668;2022-07-24T08:27:27;22.40;99.90
22071;DHT22;11200;51.488;6.668;2022-07-24T08:29:52;22.60;99.90
22071;DHT22;11200;51.488;6.668;2022-07-24T08:32:20;22.70;99.90
22071;DHT22;11200;51.488;6.668;2022-07-24T08:34:45;22.90;99.90
22071;DHT22;11200;51.488;6.668;2022-07-24T08:37:11;23.00;99.90
22071;DHT22;11200;51.488;6.668;2022-07-24T08:39:36;23.20;99.90
22071;DHT22;11200;51.488;6.668;2022-07-24T08:42:02;23.40;99.90
22071;DHT22;11200;51.488;6.668;2022-07-24T08:44:28;23.50;99.90
22071;DHT22;11200;51.488;6.668;2022-07-24T08:46:54;23.70;99.90
22071;DHT22;11200;51.488;6.668;2022-07-24T08:49:23;23.80;99.90
22071;DHT22;11200;51.488;6.668;2022-07-24T08:51:52;24.00;99.90
22071;DHT22;11200;51.488;6.668;2022-07-24T08:54:18;24.20;99.90
22071;DHT22;11200;51.488;6.668;2022-07-24T08:56:44;24.40;99.90
22071;DHT22;11200;51.488;6.668;2022-07-24T08:59:21;24.50;99.90
22071;DHT22;11200;51.488;6.668;2022-07-24T09:01:47;24.70;99.90
22071;DHT22;11200;51.488;6.668;2022-07-24T09:06:58;25.00;99.90
22071;DHT22;11200;51.488;6.668;2022-07-24T09:09:24;25.40;99.90
22071;DHT22;11200;51.488;6.668;2022-07-24T09:11:49;25.40;99.90
22071;DHT22;11200;51.488;6.668;2022-07-24T09:14:16;25.50;99.90
22071;DHT22;11200;51.488;6.668;2022-07-24T09:17:05;25.70;99.90
22071;DHT22;11200;51.488;6.668;2022-07-24T09:19:45;25.90;99.90
22071;DHT22;11200;51.488;6.668;2022-07-24T09:27:29;26.40;99.90
22071;DHT22;11200;51.488;6.668;2022-07-24T09:29:54;26.60;99.90
22071;DHT22;11200;51.488;6.668;2022-07-24T09:32:22;26.70;99.90
22071;DHT22;11200;51.488;6.668;2022-07-24T09:34:51;26.90;99.90
22071;DHT22;11200;51.488;6.668;2022-07-24T09:37:18;27.00;99.90
22071;DHT22;11200;51.488;6.668;2022-07-24T09:39:44;27.20;99.90
22071;DHT22;11200;51.488;6.668;2022-07-24T09:42:10;27.40;99.90
22071;DHT22;11200;51.488;6.668;2022-07-24T09:44:36;27.50;99.90
22071;DHT22;11200;51.488;6.668;2022-07-24T09:49:31;27.90;99.90
22071;DHT22;11200;51.488;6.668;2022-07-24T09:52:12;28.10;99.90
22071;DHT22;11200;51.488;6.668;2022-07-24T09:54:40;28.20;99.90
22071;DHT22;11200;51.488;6.668;2022-07-24T09:57:22;28.40;99.90
22071;DHT22;11200;51.488;6.668;2022-07-24T09:59:50;28.60;99.90
22071;DHT22;11200;51.488;6.668;2022-07-24T10:02:18;28.70;99.90
22071;DHT22;11200;51.488;6.668;2022-07-24T10:04:45;28.80;99.90
22071;DHT22;11200;51.488;6.668;2022-07-24T10:07:13;29.00;99.90
22071;DHT22;11200;51.488;6.668;2022-07-24T10:09:46;29.10;99.90
22071;DHT22;11200;51.488;6.668;2022-07-24T10:12:24;29.30;99.90
22071;DHT22;11200;51.488;6.668;2022-07-24T10:14:53;29.40;99.90
22071;DHT22;11200;51.488;6.668;2022-07-24T10:17:20;29.60;99.90
22071;DHT22;11200;51.488;6.668;2022-07-24T10:19:49;29.70;99.90
22071;DHT22;11200;51.488;6.668;2022-07-24T10:22:18;29.80;99.90
22071;DHT22;11200;51.488;6.668;2022-07-24T10:27:25;30.00;99.90
22071;DHT22;11200;51.488;6.668;2022-07-24T10:29:58;30.10;99.90
22071;DHT22;11200;51.488;6.668;2022-07-24T10:32:25;30.20;99.90
22071;DHT22;11200;51.488;6.668;2022-07-24T10:35:08;30.40;99.90
22071;DHT22;11200;51.488;6.668;2022-07-24T10:43:08;30.70;99.90
22071;DHT22;11200;51.488;6.668;2022-07-24T10:45:39;30.80;99.90
22071;DHT22;11200;51.488;6.668;2022-07-24T10:53:52;31.10;99.90
22071;DHT22;11200;51.488;6.668;2022-07-24T10:56:30;31.20;99.90
22071;DHT22;11200;51.488;6.668;2022-07-24T10:59:09;31.30;99.90
22071;DHT22;11200;51.488;6.668;2022-07-24T11:01:40;31.40;99.90
22071;DHT22;11200;51.488;6.668;2022-07-24T11:06:48;31.60;99.90
22071;DHT22;11200;51.488;6.668;2022-07-24T11:09:15;31.70;99.90
22071;DHT22;11200;51.488;6.668;2022-07-24T11:17:40;31.80;99.90
22071;DHT22;11200;51.488;6.668;2022-07-24T11:20:12;31.90;99.90
22071;DHT22;11200;51.488;6.668;2022-07-24T11:22:52;32.00;99.90
22071;DHT22;11200;51.488;6.668;2022-07-24T11:25:20;32.00;99.90
22071;DHT22;11200;51.488;6.668;2022-07-24T11:30:14;32.20;99.90
22071;DHT22;11200;51.488;6.668;2022-07-24T11:32:41;32.20;99.90
22071;DHT22;11200;51.488;6.668;2022-07-24T11:35:07;32.20;99.90
22071;DHT22;11200;51.488;6.668;2022-07-24T11:37:38;32.20;99.90
22071;DHT22;11200;51.488;6.668;2022-07-24T11:40:08;32.30;99.90
22071;DHT22;11200;51.488;6.668;2022-07-24T11:42:35;32.30;99.90
22071;DHT22;11200;51.488;6.668;2022-07-24T11:45:01;32.30;99.90
22071;DHT22;11200;51.488;6.668;2022-07-24T11:47:27;32.40;99.90
22071;DHT22;11200;51.488;6.668;2022-07-24T11:49:59;32.40;99.90
22071;DHT22;11200;51.488;6.668;2022-07-24T11:54:55;32.50;99.90
22071;DHT22;11200;51.488;6.668;2022-07-24T11:59:49;32.50;99.90
22071;DHT22;11200;51.488;6.668;2022-07-24T12:02:16;32.60;99.90
22071;DHT22;11200;51.488;6.668;2022-07-24T12:04:43;32.70;99.90
22071;DHT22;11200;51.488;6.668;2022-07-24T12:07:12;32.70;99.90
22071;DHT22;11200;51.488;6.668;2022-07-24T12:09:54;32.70;99.90
22071;DHT22;11200;51.488;6.668;2022-07-24T12:12:23;32.70;99.90
22071;DHT22;11200;51.488;6.668;2022-07-24T12:17:32;32.70;99.90
22071;DHT22;11200;51.488;6.668;2022-07-24T12:20:00;32.70;99.90
22071;DHT22;11200;51.488;6.668;2022-07-24T12:22:27;32.80;99.90
22071;DHT22;11200;51.488;6.668;2022-07-24T12:24:57;32.80;99.90
22071;DHT22;11200;51.488;6.668;2022-07-24T12:27:45;32.90;99.90
22071;DHT22;11200;51.488;6.668;2022-07-24T12:30:27;32.90;99.90
22071;DHT22;11200;51.488;6.668;2022-07-24T12:33:01;32.90;99.90
22071;DHT22;11200;51.488;6.668;2022-07-24T12:35:29;32.90;99.90
22071;DHT22;11200;51.488;6.668;2022-07-24T12:37:56;32.90;99.90
22071;DHT22;11200;51.488;6.668;2022-07-24T12:43:13;32.90;99.90
22071;DHT22;11200;51.488;6.668;2022-07-24T12:45:39;32.90;99.90
22071;DHT22;11200;51.488;6.668;2022-07-24T12:48:21;33.00;99.90
22071;DHT22;11200;51.488;6.668;2022-07-24T12:51:13;33.00;99.90
22071;DHT22;11200;51.488;6.668;2022-07-24T12:53:42;33.00;99.90
22071;DHT22;11200;51.488;6.668;2022-07-24T12:56:10;33.00;99.90
22071;DHT22;11200;51.488;6.668;2022-07-24T12:58:59;33.00;99.90
22071;DHT22;11200;51.488;6.668;2022-07-24T13:01:28;33.00;99.90
22071;DHT22;11200;51.488;6.668;2022-07-24T13:04:09;33.00;99.90
22071;DHT22;11200;51.488;6.668;2022-07-24T13:06:42;33.10;99.90
22071;DHT22;11200;51.488;6.668;2022-07-24T13:09:09;33.10;99.90
22071;DHT22;11200;51.488;6.668;2022-07-24T13:11:39;33.10;99.90
22071;DHT22;11200;51.488;6.668;2022-07-24T13:14:05;33.10;99.90
22071;DHT22;11200;51.488;6.668;2022-07-24T13:16:33;33.10;99.90
22071;DHT22;11200;51.488;6.668;2022-07-24T13:18:59;33.20;99.90
22071;DHT22;11200;51.488;6.668;2022-07-24T13:21:25;33.10;99.90
22071;DHT22;11200;51.488;6.668;2022-07-24T13:23:51;33.10;99.90
22071;DHT22;11200;51.488;6.668;2022-07-24T13:26:18;33.20;99.90
22071;DHT22;11200;51.488;6.668;2022-07-24T13:28:44;33.20;99.90
22071;DHT22;11200;51.488;6.668;2022-07-24T13:31:09;33.10;99.90
22071;DHT22;11200;51.488;6.668;2022-07-24T13:33:35;33.10;99.90
22071;DHT22;11200;51.488;6.668;2022-07-24T13:36:00;33.10;99.90
22071;DHT22;11200;51.488;6.668;2022-07-24T13:38:26;33.00;99.90
22071;DHT22;11200;51.488;6.668;2022-07-24T13:40:52;33.10;99.90
22071;DHT22;11200;51.488;6.668;2022-07-24T13:43:17;33.00;99.90
22071;DHT22;11200;51.488;6.668;2022-07-24T13:45:43;33.00;99.90
22071;DHT22;11200;51.488;6.668;2022-07-24T13:48:08;33.00;99.90
22071;DHT22;11200;51.488;6.668;2022-07-24T13:50:34;33.10;99.90
22071;DHT22;11200;51.488;6.668;2022-07-24T13:53:00;33.00;99.90
22071;DHT22;11200;51.488;6.668;2022-07-24T13:55:25;33.00;99.90
22071;DHT22;11200;51.488;6.668;2022-07-24T13:57:51;33.00;99.90
22071;DHT22;11200;51.488;6.668;2022-07-24T14:00:17;33.00;99.90
22071;DHT22;11200;51.488;6.668;2022-07-24T14:02:43;33.00;99.90
22071;DHT22;11200;51.488;6.668;2022-07-24T14:05:08;33.00;99.90
22071;DHT22;11200;51.488;6.668;2022-07-24T14:07:34;32.90;99.90
22071;DHT22;11200;51.488;6.668;2022-07-24T14:09:59;32.90;99.90
22071;DHT22;11200;51.488;6.668;2022-07-24T14:12:25;32.90;99.90
22071;DHT22;11200;51.488;6.668;2022-07-24T14:14:51;32.90;99.90
22071;DHT22;11200;51.488;6.668;2022-07-24T14:17:16;32.90;99.90
22071;DHT22;11200;51.488;6.668;2022-07-24T14:19:42;32.80;99.90
22071;DHT22;11200;51.488;6.668;2022-07-24T14:22:08;32.80;99.90
22071;DHT22;11200;51.488;6.668;2022-07-24T14:24:33;32.70;99.90
22071;DHT22;11200;51.488;6.668;2022-07-24T14:26:59;32.70;99.90
22071;DHT22;11200;51.488;6.668;2022-07-24T14:29:24;32.70;99.90
22071;DHT22;11200;51.488;6.668;2022-07-24T14:31:50;32.60;99.90
22071;DHT22;11200;51.488;6.668;2022-07-24T14:34:16;32.60;99.90
22071;DHT22;11200;51.488;6.668;2022-07-24T14:36:43;32.60;99.90
22071;DHT22;11200;51.488;6.668;2022-07-24T14:39:08;32.60;99.90
22071;DHT22;11200;51.488;6.668;2022-07-24T14:41:34;32.50;99.90
22071;DHT22;11200;51.488;6.668;2022-07-24T14:44:00;32.40;99.90
22071;DHT22;11200;51.488;6.668;2022-07-24T14:46:26;32.40;99.90
22071;DHT22;11200;51.488;6.668;2022-07-24T14:48:51;32.40;99.90
22071;DHT22;11200;51.488;6.668;2022-07-24T14:51:17;32.40;99.90
22071;DHT22;11200;51.488;6.668;2022-07-24T14:53:42;32.30;99.90
22071;DHT22;11200;51.488;6.668;2022-07-24T14:56:08;32.30;99.90
22071;DHT22;11200;51.488;6.668;2022-07-24T14:58:34;32.30;99.90
22071;DHT22;11200;51.488;6.668;2022-07-24T15:00:59;32.20;99.90
22071;DHT22;11200;51.488;6.668;2022-07-24T15:03:25;32.20;99.90
22071;DHT22;11200;51.488;6.668;2022-07-24T15:05:50;32.20;99.90
22071;DHT22;11200;51.488;6.668;2022-07-24T15:08:16;32.20;99.90
22071;DHT22;11200;51.488;6.668;2022-07-24T15:10:42;32.10;99.90
22071;DHT22;11200;51.488;6.668;2022-07-24T15:13:07;32.10;99.90
22071;DHT22;11200;51.488;6.668;2022-07-24T15:15:33;32.00;99.90
22071;DHT22;11200;51.488;6.668;2022-07-24T15:17:58;32.00;99.90
22071;DHT22;11200;51.488;6.668;2022-07-24T15:20:24;32.00;99.90
22071;DHT22;11200;51.488;6.668;2022-07-24T15:22:50;31.90;99.90
22071;DHT22;11200;51.488;6.668;2022-07-24T15:25:15;31.90;99.90
22071;DHT22;11200;51.488;6.668;2022-07-24T15:27:41;31.80;99.90
22071;DHT22;11200;51.488;6.668;2022-07-24T15:30:07;31.90;99.90
22071;DHT22;11200;51.488;6.668;2022-07-24T15:32:32;31.70;99.90
22071;DHT22;11200;51.488;6.668;2022-07-24T15:34:58;31.70;99.90
22071;DHT22;11200;51.488;6.668;2022-07-24T15:37:28;31.60;99.90
22071;DHT22;11200;51.488;6.668;2022-07-24T15:39:54;31.60;99.90
22071;DHT22;11200;51.488;6.668;2022-07-24T15:42:20;31.50;99.90
22071;DHT22;11200;51.488;6.668;2022-07-24T15:44:45;31.40;99.90
22071;DHT22;11200;51.488;6.668;2022-07-24T15:47:11;31.40;99.90
22071;DHT22;11200;51.488;6.668;2022-07-24T15:49:36;31.30;99.90
22071;DHT22;11200;51.488;6.668;2022-07-24T15:52:02;31.30;99.90
22071;DHT22;11200;51.488;6.668;2022-07-24T15:54:28;31.20;99.90
22071;DHT22;11200;51.488;6.668;2022-07-24T15:56:53;31.10;99.90
22071;DHT22;11200;51.488;6.668;2022-07-24T15:59:19;31.10;99.90
22071;DHT22;11200;51.488;6.668;2022-07-24T16:01:44;31.00;99.90
22071;DHT22;11200;51.488;6.668;2022-07-24T16:04:10;30.90;99.90
22071;DHT22;11200;51.488;6.668;2022-07-24T16:06:36;30.80;99.90
22071;DHT22;11200;51.488;6.668;2022-07-24T16:09:01;30.80;99.90
22071;DHT22;11200;51.488;6.668;2022-07-24T16:11:27;30.80;99.90
22071;DHT22;11200;51.488;6.668;2022-07-24T16:13:52;30.60;99.90